Time;durP1;ratioP1;P1;durP2;ratioP2;P2;SDS_P1;SDS_P2;PMS_P1;PMS_P2;Temp;Humidity;BMP_temperature;BMP_pressure;BME280_temperature;BME280_humidity;BME280_pressure;Samples;Min_cycle;Max_cycle;Signal;HPM_P1;HPM_P2
2024/03/24 00:01:05;;;;;;;;;;;;;;;2.79;79.19;99177.66;134097;1305;22432;-74
2024/03/24 00:04:06;;;;;;;;;;;;;;;2.78;79.42;99173.90;133889;1300;22443;-74
2024/03/24 00:07:09;;;;;;;;;;;;;;;2.75;79.02;99175.52;134072;1301;22471;-74
2024/03/24 00:10:12;;;;;;;;;;;;;;;2.72;78.89;99174.48;134108;1298;22422;-74
2024/03/24 00:13:13;;;;;;;;;;;;;;;2.67;79.05;99171.17;134094;1298;22520;-74
2024/03/24 00:16:16;;;;;;;;;;;;;;;2.63;79.14;99174.35;134109;1305;22522;-74
2024/03/24 00:19:19;;;;;;;;;;;;;;;2.58;79.17;99171.52;133884;1298;22494;-74
2024/03/24 00:22:20;;;;;;;;;;;;;;;2.55;79.17;99170.55;134077;1305;22524;-74
2024/03/24 00:25:21;;;;;;;;;;;;;;;2.56;79.23;99169.41;134093;1298;23241;-73
2024/03/24 00:28:22;;;;;;;;;;;;;;;2.55;79.25;99162.70;134117;1298;22461;-74
2024/03/24 00:31:23;;;;;;;;;;;;;;;2.54;79.27;99156.66;133936;1298;22467;-74
2024/03/24 00:34:26;;;;;;;;;;;;;;;2.51;79.04;99153.80;134124;1298;22471;-74
2024/03/24 00:37:27;;;;;;;;;;;;;;;2.48;78.94;99147.95;134119;1306;22479;-74
2024/03/24 00:40:27;;;;;;;;;;;;;;;2.44;78.86;99142.86;133924;1301;22468;-73
2024/03/24 00:43:28;;;;;;;;;;;;;;;2.42;79.10;99136.49;133931;1305;23194;-74
2024/03/24 00:46:29;;;;;;;;;;;;;;;2.39;78.92;99132.90;134100;1300;22458;-75
2024/03/24 00:49:30;;;;;;;;;;;;;;;2.33;78.67;99134.67;134110;1301;23116;-74
2024/03/24 00:52:33;;;;;;;;;;;;;;;2.28;78.77;99133.77;134080;1298;22562;-74
2024/03/24 00:55:35;;;;;;;;;;;;;;;2.24;78.79;99134.37;134076;1300;23262;-74
2024/03/24 00:58:37;;;;;;;;;;;;;;;2.19;78.74;99128.71;134092;1298;22463;-74
2024/03/24 01:01:38;;;;;;;;;;;;;;;2.16;78.90;99126.58;134030;1299;24810;-74
2024/03/24 01:04:38;;;;;;;;;;;;;;;2.13;78.81;99118.65;133898;1301;22475;-73
2024/03/24 01:07:39;;;;;;;;;;;;;;;2.08;78.64;99112.46;134085;1298;25583;-74
2024/03/24 01:10:40;;;;;;;;;;;;;;;2.02;78.86;99106.67;134109;1298;22530;-74
2024/03/24 01:13:41;;;;;;;;;;;;;;;1.99;78.93;99107.86;134102;1300;22457;-74
2024/03/24 01:16:44;;;;;;;;;;;;;;;1.96;78.77;99110.25;134088;1298;22453;-74
2024/03/24 01:19:45;;;;;;;;;;;;;;;1.93;79.00;99111.25;134095;1298;23169;-74
2024/03/24 01:22:48;;;;;;;;;;;;;;;1.90;79.09;99109.73;134086;1301;23378;-74
2024/03/24 01:25:49;;;;;;;;;;;;;;;1.88;79.28;99105.20;133930;1298;22460;-75
2024/03/24 01:28:53;;;;;;;;;;;;;;;1.86;79.23;99102.71;134083;1298;22541;-74
2024/03/24 01:31:54;;;;;;;;;;;;;;;1.86;79.45;99100.52;134081;1299;23183;-74
2024/03/24 01:34:55;;;;;;;;;;;;;;;1.84;79.79;99095.40;134121;1298;22474;-74
2024/03/24 01:37:55;;;;;;;;;;;;;;;1.85;79.77;99095.02;133877;1298;22589;-75
2024/03/24 01:40:56;;;;;;;;;;;;;;;1.84;79.74;99097.85;134104;1298;22468;-74
2024/03/24 01:43:57;;;;;;;;;;;;;;;1.80;79.68;99097.65;134093;1298;22452;-77
2024/03/24 01:47:19;;;;;;;;;;;;;;;1.76;79.74;99099.05;134078;1305;22684;-74
2024/03/24 01:50:27;;;;;;;;;;;;;;;1.77;79.84;99097.77;134097;1298;22496;-73
2024/03/24 01:53:27;;;;;;;;;;;;;;;1.76;79.93;99096.45;134083;1298;22533;-75
2024/03/24 01:56:31;;;;;;;;;;;;;;;1.74;79.77;99095.27;134129;1300;22506;-73
2024/03/24 01:59:35;;;;;;;;;;;;;;;1.70;79.89;99094.39;134124;1301;22481;-75
2024/03/24 02:02:35;;;;;;;;;;;;;;;1.69;79.92;99095.49;133929;1300;23311;-74
2024/03/24 02:05:39;;;;;;;;;;;;;;;1.67;79.94;99100.74;134105;1298;22436;-74
2024/03/24 02:08:40;;;;;;;;;;;;;;;1.68;80.14;99100.63;134111;1301;22529;-74
2024/03/24 02:11:44;;;;;;;;;;;;;;;1.66;80.14;99100.32;134100;1301;22478;-73
2024/03/24 02:14:44;;;;;;;;;;;;;;;1.66;80.21;99098.91;134138;1306;22477;-73
2024/03/24 02:17:45;;;;;;;;;;;;;;;1.68;80.30;99095.42;134106;1304;22462;-73
2024/03/24 02:21:31;;;;;;;;;;;;;;;1.68;80.22;99095.27;134095;1301;22466;-78
2024/03/24 02:24:18;;;;;;;;;;;;;;;1.67;80.27;99091.88;134020;1300;22481;-74
2024/03/24 02:27:23;;;;;;;;;;;;;;;1.67;80.22;99087.30;134095;1298;22455;-73
2024/03/24 02:30:27;;;;;;;;;;;;;;;1.65;79.97;99093.23;134098;1298;23524;-74
2024/03/24 02:33:31;;;;;;;;;;;;;;;1.62;80.05;99089.69;134120;1298;22476;-74
2024/03/24 02:36:32;;;;;;;;;;;;;;;1.58;80.22;99091.75;134100;1298;22453;-75
2024/03/24 02:39:39;;;;;;;;;;;;;;;1.53;79.98;99094.15;133929;1299;23144;-74
2024/03/24 02:42:39;;;;;;;;;;;;;;;1.47;79.97;99086.11;134112;1298;23640;-73
2024/03/24 02:45:41;;;;;;;;;;;;;;;1.42;79.93;99086.05;134135;1298;22464;-75
2024/03/24 02:48:41;;;;;;;;;;;;;;;1.38;80.09;99083.58;134136;1291;22462;-74
2024/03/24 02:51:42;;;;;;;;;;;;;;;1.31;79.92;99084.00;133933;1301;22473;-74
2024/03/24 02:54:42;;;;;;;;;;;;;;;1.26;79.91;99081.86;134144;1298;22480;-73
2024/03/24 02:57:43;;;;;;;;;;;;;;;1.26;80.38;99083.59;134135;1301;23181;-74
2024/03/24 03:00:44;;;;;;;;;;;;;;;1.27;80.58;99089.43;133905;1299;23390;-74
2024/03/24 03:03:48;;;;;;;;;;;;;;;1.28;80.49;99083.52;134142;1298;22466;-73
2024/03/24 03:06:49;;;;;;;;;;;;;;;1.28;80.61;99080.41;134137;1298;23196;-74
2024/03/24 03:09:51;;;;;;;;;;;;;;;1.24;80.63;99076.41;134104;1301;23353;-73
2024/03/24 03:12:54;;;;;;;;;;;;;;;1.21;80.68;99074.62;134125;1298;22521;-73
2024/03/24 03:15:55;;;;;;;;;;;;;;;1.22;80.84;99078.72;134107;1306;22448;-74
2024/03/24 03:18:57;;;;;;;;;;;;;;;1.21;80.78;99075.48;134095;1300;22526;-75
2024/03/24 03:21:57;;;;;;;;;;;;;;;1.21;80.85;99071.48;134108;1301;22458;-79
2024/03/24 03:25:06;;;;;;;;;;;;;;;1.21;80.92;99071.50;133924;1298;22481;-73
2024/03/24 03:28:07;;;;;;;;;;;;;;;1.22;81.05;99073.48;133949;1301;23222;-73
2024/03/24 03:31:10;;;;;;;;;;;;;;;1.22;81.11;99073.48;134098;1298;23151;-74
2024/03/24 03:34:11;;;;;;;;;;;;;;;1.21;81.31;99071.15;134115;1298;22526;-73
2024/03/24 03:37:11;;;;;;;;;;;;;;;1.22;81.40;99073.69;134117;1301;22920;-73
2024/03/24 03:40:12;;;;;;;;;;;;;;;1.22;81.45;99070.47;134137;1298;22467;-74
2024/03/24 03:43:16;;;;;;;;;;;;;;;1.21;81.34;99071.81;133938;1299;22490;-73
2024/03/24 03:46:17;;;;;;;;;;;;;;;1.23;81.56;99067.30;134125;1301;22558;-74
2024/03/24 03:49:17;;;;;;;;;;;;;;;1.24;81.36;99067.58;134113;1298;23163;-79
2024/03/24 03:52:29;;;;;;;;;;;;;;;1.22;81.34;99070.85;134097;1298;23152;-75
2024/03/24 03:55:33;;;;;;;;;;;;;;;1.22;81.38;99071.56;134099;1300;22458;-73
2024/03/24 03:58:37;;;;;;;;;;;;;;;1.21;81.38;99071.50;134126;1299;22586;-74
2024/03/24 04:01:37;;;;;;;;;;;;;;;1.21;81.43;99069.90;134060;1300;22547;-74
2024/03/24 04:04:41;;;;;;;;;;;;;;;1.22;81.44;99066.83;134074;1298;22489;-74
2024/03/24 04:07:42;;;;;;;;;;;;;;;1.22;81.50;99063.75;134099;1300;22457;-74
2024/03/24 04:10:42;;;;;;;;;;;;;;;1.17;81.56;99062.05;134110;1298;22480;-74
2024/03/24 04:13:43;;;;;;;;;;;;;;;1.15;81.41;99063.48;134070;1298;22528;-74
2024/03/24 04:16:53;;;;;;;;;;;;;;;1.09;81.37;99065.52;134096;1301;23081;-74
2024/03/24 04:19:53;;;;;;;;;;;;;;;1.04;81.59;99070.13;134138;1301;22538;-74
2024/03/24 04:22:55;;;;;;;;;;;;;;;0.98;81.38;99073.15;134094;1301;22485;-73
2024/03/24 04:25:56;;;;;;;;;;;;;;;0.91;81.28;99074.73;134110;1305;22559;-74
2024/03/24 04:28:56;;;;;;;;;;;;;;;0.86;81.08;99072.40;134115;1301;22653;-75
2024/03/24 04:31:57;;;;;;;;;;;;;;;0.80;81.02;99071.32;134120;1306;23146;-74
2024/03/24 04:34:57;;;;;;;;;;;;;;;0.76;80.93;99065.93;134106;1301;22576;-73
2024/03/24 04:37:58;;;;;;;;;;;;;;;0.71;80.68;99068.98;134096;1305;22473;-75
2024/03/24 04:41:02;;;;;;;;;;;;;;;0.66;80.84;99068.08;134101;1298;23271;-73
2024/03/24 04:44:06;;;;;;;;;;;;;;;0.66;81.05;99066.38;134067;1298;22492;-73
2024/03/24 04:47:07;;;;;;;;;;;;;;;0.68;81.28;99061.39;134115;1298;23279;-74
2024/03/24 04:50:07;;;;;;;;;;;;;;;0.74;81.89;99063.50;134125;1294;22541;-73
2024/03/24 04:53:14;;;;;;;;;;;;;;;0.77;82.05;99061.13;134109;1305;22465;-74
2024/03/24 04:56:15;;;;;;;;;;;;;;;0.76;82.00;99061.74;134137;1298;22535;-74
2024/03/24 04:59:16;;;;;;;;;;;;;;;0.75;82.24;99068.42;134099;1298;22891;-73
2024/03/24 05:02:18;;;;;;;;;;;;;;;0.77;82.18;99068.79;134083;1298;22628;-74
2024/03/24 05:05:22;;;;;;;;;;;;;;;0.81;82.43;99067.55;134107;1301;22466;-74
2024/03/24 05:08:23;;;;;;;;;;;;;;;0.88;82.45;99065.41;133947;1301;22642;-74
2024/03/24 05:11:24;;;;;;;;;;;;;;;0.96;82.57;99063.58;134094;1298;22470;-73
2024/03/24 05:14:28;;;;;;;;;;;;;;;1.03;82.59;99061.58;133836;1301;328268;-73
2024/03/24 05:17:36;;;;;;;;;;;;;;;1.09;82.55;99059.13;134119;1298;23286;-74
2024/03/24 05:20:44;;;;;;;;;;;;;;;1.15;82.61;99056.84;134107;1298;22485;-74
2024/03/24 05:23:48;;;;;;;;;;;;;;;1.21;82.60;99056.29;134111;1298;22531;-74
2024/03/24 05:26:49;;;;;;;;;;;;;;;1.26;82.63;99057.58;134111;1294;22454;-73
2024/03/24 05:29:49;;;;;;;;;;;;;;;1.32;82.59;99060.54;134131;1301;23380;-73
2024/03/24 05:32:50;;;;;;;;;;;;;;;1.38;82.51;99059.56;133914;1301;22477;-73
2024/03/24 05:35:57;;;;;;;;;;;;;;;1.42;82.43;99058.27;134124;1298;23234;-73
2024/03/24 05:38:58;;;;;;;;;;;;;;;1.46;82.43;99053.09;134132;1298;23296;-73
2024/03/24 05:42:21;;;;;;;;;;;;;;;1.51;82.65;99060.65;134109;1298;22489;-73
2024/03/24 05:45:22;;;;;;;;;;;;;;;1.60;82.75;99061.27;133938;1298;22456;-73
2024/03/24 05:48:26;;;;;;;;;;;;;;;1.70;82.92;99062.84;133927;1298;22544;-73
2024/03/24 05:51:33;;;;;;;;;;;;;;;1.78;82.82;99064.69;134114;1306;23153;-73
2024/03/24 05:54:34;;;;;;;;;;;;;;;1.86;82.86;99064.02;134122;1298;22459;-75
2024/03/24 05:57:37;;;;;;;;;;;;;;;1.91;82.81;99067.77;134150;1298;22473;-75
2024/03/24 06:00:42;;;;;;;;;;;;;;;1.95;82.78;99067.89;134086;1299;22517;-72
2024/03/24 06:03:46;;;;;;;;;;;;;;;2.00;82.92;99071.13;134137;1298;22466;-73
2024/03/24 06:06:52;;;;;;;;;;;;;;;2.07;83.11;99069.65;134076;1300;22529;-71
2024/03/24 06:10:00;;;;;;;;;;;;;;;2.16;83.06;99073.54;134104;1300;22474;-70
2024/03/24 06:13:08;;;;;;;;;;;;;;;2.22;83.08;99072.40;134043;1299;23316;-71
2024/03/24 06:16:11;;;;;;;;;;;;;;;2.29;82.85;99071.21;134057;1298;22437;-74
2024/03/24 06:19:13;;;;;;;;;;;;;;;2.35;82.86;99074.14;134068;1298;23307;-75
2024/03/24 06:22:24;;;;;;;;;;;;;;;;;;;;;
2024/03/24 06:25:27;;;;;;;;;;;;;;;2.34;82.55;99076.33;134032;1304;22700;-75
2024/03/24 06:28:28;;;;;;;;;;;;;;;2.32;82.44;99080.29;134088;1301;22500;-73
2024/03/24 06:31:29;;;;;;;;;;;;;;;2.32;82.39;99078.77;134100;1298;22473;-76
2024/03/24 06:34:29;;;;;;;;;;;;;;;2.33;82.28;99081.93;133886;1298;22476;-73
2024/03/24 06:37:30;;;;;;;;;;;;;;;2.37;82.52;99085.78;134078;1298;22477;-72
2024/03/24 06:40:33;;;;;;;;;;;;;;;2.42;82.34;99082.20;134038;1298;23274;-75
2024/03/24 06:43:42;;;;;;;;;;;;;;;2.46;82.37;99083.94;134050;1301;22538;-77
2024/03/24 06:46:44;;;;;;;;;;;;;;;2.49;81.97;99086.05;134047;1291;22468;-72
2024/03/24 06:49:45;;;;;;;;;;;;;;;2.52;82.18;99089.67;134073;1301;23090;-74
2024/03/24 06:52:55;;;;;;;;;;;;;;;;;;;;;
2024/03/24 06:56:03;;;;;;;;;;;;;;;2.58;82.11;99091.52;134103;1300;22684;-72
2024/03/24 06:59:06;;;;;;;;;;;;;;;2.62;82.19;99090.69;134069;1299;22556;-74
2024/03/24 07:02:12;;;;;;;;;;;;;;;2.65;82.31;99092.80;134117;1285;22555;-72
2024/03/24 07:05:16;;;;;;;;;;;;;;;2.70;82.36;99092.55;134107;1301;22440;-73
2024/03/24 07:08:17;;;;;;;;;;;;;;;2.75;82.16;99089.80;134084;1298;22474;-73
2024/03/24 07:11:20;;;;;;;;;;;;;;;2.79;82.05;99091.02;134128;1305;22540;-71
2024/03/24 07:14:20;;;;;;;;;;;;;;;2.84;82.15;99096.86;134101;1298;23299;-69
2024/03/24 07:17:21;;;;;;;;;;;;;;;2.89;82.17;99098.79;134076;1298;22538;-68
2024/03/24 07:20:25;;;;;;;;;;;;;;;2.96;82.16;99099.94;134113;1298;22459;-70
2024/03/24 07:23:25;;;;;;;;;;;;;;;3.00;82.00;99100.02;134092;1298;23228;-72
2024/03/24 07:26:36;;;;;;;;;;;;;;;;;;;;;
2024/03/24 07:29:40;;;;;;;;;;;;;;;3.13;82.02;99097.79;134086;1298;23205;-71
2024/03/24 07:32:41;;;;;;;;;;;;;;;3.23;82.00;99096.64;134056;1301;22480;-72
2024/03/24 07:35:42;;;;;;;;;;;;;;;3.34;82.08;99085.82;134115;1298;22545;-73
2024/03/24 07:38:49;;;;;;;;;;;;;;;3.48;81.85;99086.09;134093;1301;22490;-72
2024/03/24 07:41:52;;;;;;;;;;;;;;;3.63;81.81;99082.36;134164;1299;23302;-72
2024/03/24 07:44:52;;;;;;;;;;;;;;;3.81;82.09;99077.88;134129;1298;23162;-74
2024/03/24 07:47:54;;;;;;;;;;;;;;;3.97;81.59;99077.70;133943;1305;22456;-73
2024/03/24 07:50:57;;;;;;;;;;;;;;;4.14;81.69;99071.33;134154;1298;22513;-73
2024/03/24 07:54:00;;;;;;;;;;;;;;;4.32;81.26;99068.96;134172;1298;22435;-73
2024/03/24 07:57:01;;;;;;;;;;;;;;;4.56;81.15;99065.23;134163;1305;22470;-76
2024/03/24 08:00:06;;;;;;;;;;;;;;;4.86;80.80;99062.73;134092;1305;22621;-73
2024/03/24 08:03:13;;;;;;;;;;;;;;;5.54;80.91;99064.14;134137;1298;22507;-73
2024/03/24 08:06:13;;;;;;;;;;;;;;;6.29;80.50;99062.52;134148;1298;22464;-74
2024/03/24 08:09:14;;;;;;;;;;;;;;;7.20;79.84;99056.86;134103;1298;22527;-72
2024/03/24 08:12:16;;;;;;;;;;;;;;;7.80;76.76;99054.80;134124;1298;23184;-73
2024/03/24 08:15:16;;;;;;;;;;;;;;;8.20;75.20;99052.19;134100;1305;22530;-76
2024/03/24 08:18:20;;;;;;;;;;;;;;;8.51;75.05;99052.98;134103;1305;22463;-81
2024/03/24 08:21:21;;;;;;;;;;;;;;;8.91;73.49;99051.10;134126;1298;23371;-71
2024/03/24 08:24:25;;;;;;;;;;;;;;;9.17;70.50;99046.92;133898;1301;23123;-71
2024/03/24 08:27:25;;;;;;;;;;;;;;;9.32;69.89;99049.40;134116;1301;22445;-70
2024/03/24 08:30:31;;;;;;;;;;;;;;;9.54;69.98;99048.89;134108;1298;22495;-71
2024/03/24 08:33:34;;;;;;;;;;;;;;;9.83;68.92;99045.88;134121;1301;23352;-71
2024/03/24 08:36:37;;;;;;;;;;;;;;;10.21;68.40;99044.35;134121;1298;23153;-71
2024/03/24 08:39:44;;;;;;;;;;;;;;;10.52;67.21;99042.48;134108;1298;22826;-71
2024/03/24 08:42:45;;;;;;;;;;;;;;;10.87;65.79;99040.90;134097;1301;22471;-71
2024/03/24 08:45:48;;;;;;;;;;;;;;;11.00;63.01;99038.16;134087;1305;22479;-72
2024/03/24 08:48:49;;;;;;;;;;;;;;;11.02;62.80;99036.12;134077;1301;22493;-72
2024/03/24 08:51:52;;;;;;;;;;;;;;;10.89;62.08;99030.34;134102;1294;22478;-70
2024/03/24 08:54:52;;;;;;;;;;;;;;;10.48;62.27;99030.95;134068;1301;23426;-71
2024/03/24 08:58:03;;;;;;;;;;;;;;;10.24;61.94;99028.65;134105;1298;23264;-73
2024/03/24 09:01:04;;;;;;;;;;;;;;;10.51;61.57;99024.16;133897;1301;22430;-71
2024/03/24 09:04:05;;;;;;;;;;;;;;;10.58;60.01;99018.91;134113;1298;22555;-71
2024/03/24 09:07:05;;;;;;;;;;;;;;;10.32;59.27;99015.42;134078;1301;22470;-71
2024/03/24 09:10:09;;;;;;;;;;;;;;;10.41;58.94;99017.11;134068;1301;22455;-71
2024/03/24 09:13:10;;;;;;;;;;;;;;;10.76;59.25;99013.03;134059;1301;22741;-70
2024/03/24 09:16:11;;;;;;;;;;;;;;;10.97;58.20;99010.33;134062;1300;22475;-71
2024/03/24 09:19:22;;;;;;;;;;;;;;;10.76;57.68;99014.50;134085;1291;22474;-73
2024/03/24 09:22:25;;;;;;;;;;;;;;;10.29;57.76;99014.95;134052;1298;22465;-72
2024/03/24 09:25:31;;;;;;;;;;;;;;;9.78;57.30;99010.41;134076;1298;22475;-71
2024/03/24 09:28:34;;;;;;;;;;;;;;;9.39;57.55;99012.55;134044;1299;22501;-71
2024/03/24 09:31:35;;;;;;;;;;;;;;;8.97;57.67;99015.65;134069;1287;22446;-70
2024/03/24 09:34:36;;;;;;;;;;;;;;;8.93;58.85;99014.33;134025;1304;22495;-72
2024/03/24 09:37:36;;;;;;;;;;;;;;;9.13;58.85;99012.52;134007;1301;22478;-77
2024/03/24 09:40:47;;;;;;;;;;;;;;;9.73;57.96;99005.41;134038;1298;23129;-77
2024/03/24 09:43:51;;;;;;;;;;;;;;;10.29;57.64;99000.80;134052;1298;22463;-77
2024/03/24 09:47:02;;;;;;;;;;;;;;;;;;;;;
2024/03/24 09:50:06;;;;;;;;;;;;;;;10.08;54.99;98996.34;133991;1298;22479;-78
2024/03/24 09:53:11;;;;;;;;;;;;;;;9.72;55.11;98997.72;134050;1298;22501;-77
2024/03/24 09:56:12;;;;;;;;;;;;;;;9.99;55.48;98996.82;134055;1301;23081;-77
2024/03/24 09:59:21;;;;;;;;;;;;;;;10.44;53.42;98984.91;134053;1304;22468;-77
2024/03/24 10:02:22;;;;;;;;;;;;;;;10.48;52.45;98982.98;133876;1301;23079;-77
2024/03/24 10:05:24;;;;;;;;;;;;;;;10.05;52.17;98984.28;133904;1306;22476;-77
2024/03/24 10:08:31;;;;;;;;;;;;;;;10.05;52.26;98981.60;134053;1301;22484;-77
2024/03/24 10:11:33;;;;;;;;;;;;;;;10.42;52.26;98977.53;134078;1298;22513;-78
2024/03/24 10:14:43;;;;;;;;;;;;;;;10.76;51.69;98977.52;133880;1298;22548;-77
2024/03/24 10:18:05;;;;;;;;;;;;;;;11.07;51.88;98974.92;134107;1306;22474;-77
2024/03/24 10:21:09;;;;;;;;;;;;;;;11.20;50.72;98972.38;134033;1298;22456;-77
2024/03/24 10:24:10;;;;;;;;;;;;;;;11.24;50.54;98970.23;133837;1301;22455;-79
2024/03/24 10:27:13;;;;;;;;;;;;;;;11.19;48.06;98964.73;134087;1298;22409;-79
2024/03/24 10:30:13;;;;;;;;;;;;;;;10.62;48.68;98963.95;134054;1298;23188;-82
2024/03/24 10:33:20;;;;;;;;;;;;;;;10.38;48.62;98961.16;134053;1299;23339;-78
2024/03/24 10:36:24;;;;;;;;;;;;;;;10.47;48.18;98953.59;133900;1301;22482;-77
2024/03/24 10:39:25;;;;;;;;;;;;;;;10.71;48.45;98961.31;134074;1304;22606;-78
2024/03/24 10:42:56;;;;;;;;;;;;;;;10.92;47.94;98955.97;134096;1300;22444;-77
2024/03/24 10:45:56;;;;;;;;;;;;;;;11.10;47.23;98952.08;133874;1304;23269;-78
2024/03/24 10:49:01;;;;;;;;;;;;;;;11.24;47.79;98946.77;133918;1304;22463;-78
2024/03/24 10:52:04;;;;;;;;;;;;;;;11.44;47.35;98945.88;134078;1304;22482;-78
2024/03/24 10:55:15;;;;;;;;;;;;;;;11.64;46.97;98941.52;134117;1304;22650;-77
2024/03/24 10:58:18;;;;;;;;;;;;;;;11.41;46.80;98940.12;134069;1301;22537;-78
2024/03/24 11:01:22;;;;;;;;;;;;;;;11.04;46.76;98941.91;134086;1301;23077;-77
2024/03/24 11:04:37;;;;;;;;;;;;;;;10.69;46.82;98938.49;134037;1303;22564;-77
2024/03/24 11:07:40;;;;;;;;;;;;;;;10.42;47.27;98928.30;134065;1306;22411;-77
2024/03/24 11:10:42;;;;;;;;;;;;;;;10.31;47.64;98924.56;134058;1304;22475;-78
2024/03/24 11:13:43;;;;;;;;;;;;;;;10.48;47.53;98923.56;134118;1298;23280;-78
2024/03/24 11:16:43;;;;;;;;;;;;;;;10.44;47.45;98917.88;134092;1305;22477;-79
2024/03/24 11:19:50;;;;;;;;;;;;;;;10.32;47.82;98915.06;134095;1298;22475;-79
2024/03/24 11:23:00;;;;;;;;;;;;;;;10.09;47.90;98914.06;134110;1303;22990;-80
2024/03/24 11:26:18;;;;;;;;;;;;;;;;;;;;;
2024/03/24 11:29:40;;;;;;;;;;;;;;;9.70;48.25;98919.36;134058;1298;22479;-80
2024/03/24 11:32:58;;;;;;;;;;;;;;;9.59;48.17;98916.50;133885;1305;25477;-81
2024/03/24 11:39:32;;;;;;;;;;;;;;;9.46;48.11;98921.31;134108;1305;22501;-80
2024/03/24 11:42:36;;;;;;;;;;;;;;;9.48;48.76;98920.19;134022;1306;23612;-80
2024/03/24 11:45:41;;;;;;;;;;;;;;;9.48;48.95;98911.70;134083;1305;22482;-80
2024/03/24 11:48:47;;;;;;;;;;;;;;;9.45;48.92;98909.64;133915;1299;22583;-79
2024/03/24 11:51:49;;;;;;;;;;;;;;;9.40;48.77;98907.32;133995;1298;22557;-74
2024/03/24 11:54:51;;;;;;;;;;;;;;;9.46;48.44;98907.20;134077;1299;22486;-72
2024/03/24 11:57:52;;;;;;;;;;;;;;;9.59;48.46;98901.98;134076;1304;22561;-72
2024/03/24 12:00:53;;;;;;;;;;;;;;;9.68;47.82;98900.21;134040;1298;22456;-72
2024/03/24 12:03:56;;;;;;;;;;;;;;;9.67;47.88;98903.89;134101;1298;22484;-72
2024/03/24 12:07:00;;;;;;;;;;;;;;;9.78;47.55;98902.69;134074;1301;22478;-74
2024/03/24 12:10:03;;;;;;;;;;;;;;;9.88;47.31;98900.77;134083;1300;22477;-73
2024/03/24 12:13:04;;;;;;;;;;;;;;;9.90;47.01;98896.67;134070;1298;22508;-72
2024/03/24 12:16:08;;;;;;;;;;;;;;;9.89;47.58;98898.63;134100;1301;22471;-72
2024/03/24 12:19:09;;;;;;;;;;;;;;;9.96;47.60;98901.86;134072;1298;22591;-72
2024/03/24 12:22:09;;;;;;;;;;;;;;;9.88;47.28;98896.99;134092;1298;23184;-72
2024/03/24 12:25:12;;;;;;;;;;;;;;;9.82;47.62;98895.80;134142;1298;23168;-72
2024/03/24 12:28:17;;;;;;;;;;;;;;;9.81;47.77;98892.53;134089;1298;22928;-73
2024/03/24 12:31:17;;;;;;;;;;;;;;;9.71;47.39;98887.64;134125;1299;22521;-73
2024/03/24 12:34:22;;;;;;;;;;;;;;;9.53;47.18;98886.09;134094;1292;22468;-72
2024/03/24 12:37:25;;;;;;;;;;;;;;;9.35;47.42;98881.40;134105;1305;22458;-77
2024/03/24 12:40:27;;;;;;;;;;;;;;;9.26;47.41;98873.32;134040;1305;23312;-74
2024/03/24 12:43:28;;;;;;;;;;;;;;;9.20;47.61;98867.86;134068;1299;22564;-72
2024/03/24 12:46:31;;;;;;;;;;;;;;;9.27;47.95;98860.67;134116;1298;22534;-72
2024/03/24 12:49:36;;;;;;;;;;;;;;;9.47;48.40;98853.23;134088;1298;22480;-73
2024/03/24 12:52:37;;;;;;;;;;;;;;;9.89;48.65;98853.46;133889;1301;23252;-73
2024/03/24 12:55:40;;;;;;;;;;;;;;;10.28;48.06;98846.90;134050;1298;22474;-75
2024/03/24 12:58:42;;;;;;;;;;;;;;;10.49;48.31;98852.18;134064;1298;22585;-72
2024/03/24 13:01:45;;;;;;;;;;;;;;;10.64;48.18;98846.23;133913;1305;22560;-72
2024/03/24 13:04:48;;;;;;;;;;;;;;;10.61;47.87;98845.33;134085;1298;22475;-73
2024/03/24 13:07:49;;;;;;;;;;;;;;;10.47;47.87;98847.31;134072;1302;22499;-73
2024/03/24 13:10:52;;;;;;;;;;;;;;;10.43;47.85;98841.66;134099;1301;23228;-72
2024/03/24 13:13:53;;;;;;;;;;;;;;;10.53;47.55;98833.67;134068;1299;22490;-72
2024/03/24 13:17:11;;;;;;;;;;;;;;;10.66;47.54;98828.33;134068;1300;22476;-72
2024/03/24 13:20:13;;;;;;;;;;;;;;;10.75;47.69;98827.05;134136;1298;22448;-73
2024/03/24 13:23:15;;;;;;;;;;;;;;;10.81;47.38;98820.86;134079;1299;22485;-72
2024/03/24 13:26:36;;;;;;;;;;;;;;;10.74;46.83;98820.48;134064;1301;22513;-74
2024/03/24 13:29:40;;;;;;;;;;;;;;;10.71;46.79;98817.08;134076;1305;22569;-73
2024/03/24 13:32:40;;;;;;;;;;;;;;;10.72;46.62;98815.77;134067;1301;22486;-76
2024/03/24 13:35:41;;;;;;;;;;;;;;;10.72;46.53;98809.95;134085;1298;22452;-72
2024/03/24 13:39:02;;;;;;;;;;;;;;;10.83;46.46;98808.02;134087;1291;23216;-72
2024/03/24 13:42:24;;;;;;;;;;;;;;;10.89;46.11;98804.81;133997;1305;22470;-73
2024/03/24 13:45:29;;;;;;;;;;;;;;;10.88;46.01;98796.80;134054;1298;22484;-72
2024/03/24 13:48:31;;;;;;;;;;;;;;;10.86;45.44;98789.90;134062;1299;22436;-72
2024/03/24 13:51:56;;;;;;;;;;;;;;;10.76;44.93;98791.46;133837;1297;22455;-72
2024/03/24 13:54:58;;;;;;;;;;;;;;;10.50;44.77;98790.04;133469;1303;23251;-73
2024/03/24 13:58:05;;;;;;;;;;;;;;;10.25;45.31;98789.10;133392;1304;22487;-72
2024/03/24 14:01:06;;;;;;;;;;;;;;;10.16;45.89;98785.49;133402;1307;23256;-75
2024/03/24 14:04:09;;;;;;;;;;;;;;;10.20;45.68;98782.27;133454;1301;23274;-71
2024/03/24 14:07:14;;;;;;;;;;;;;;;10.07;45.40;98774.36;133463;1303;23226;-72
2024/03/24 14:10:15;;;;;;;;;;;;;;;10.07;46.12;98771.87;133445;1307;22454;-72
2024/03/24 14:13:35;;;;;;;;;;;;;;;10.19;45.98;98770.21;133415;1303;22490;-72
2024/03/24 14:16:50;;;;;;;;;;;;;;;10.25;45.31;98768.16;133464;1304;22487;-72
2024/03/24 14:19:53;;;;;;;;;;;;;;;10.31;45.87;98767.20;133465;1304;22667;-72
2024/03/24 14:23:25;;;;;;;;;;;;;;;10.24;45.43;98772.17;133421;1295;22481;-71
2024/03/24 14:26:26;;;;;;;;;;;;;;;10.02;45.82;98768.74;133701;1298;22552;-72
2024/03/24 14:29:27;;;;;;;;;;;;;;;9.94;46.25;98763.52;134074;1298;22466;-72
2024/03/24 14:32:28;;;;;;;;;;;;;;;9.85;46.59;98763.02;133808;1299;22506;-71
2024/03/24 14:35:49;;;;;;;;;;;;;;;9.78;46.50;98757.48;134085;1299;22481;-72
2024/03/24 14:38:49;;;;;;;;;;;;;;;9.71;46.73;98752.75;134049;1304;22446;-72
2024/03/24 14:41:58;;;;;;;;;;;;;;;9.76;46.62;98746.35;134060;1299;22464;-72
2024/03/24 14:45:14;;;;;;;;;;;;;;;9.89;46.33;98741.11;134070;1301;22481;-71
2024/03/24 14:48:28;;;;;;;;;;;;;;;10.01;46.50;98738.20;134042;1298;22471;-72
2024/03/24 14:51:32;;;;;;;;;;;;;;;10.00;46.28;98739.68;134058;1298;22491;-71
2024/03/24 14:54:32;;;;;;;;;;;;;;;9.88;46.72;98738.23;134069;1298;23300;-72
2024/03/24 14:57:36;;;;;;;;;;;;;;;9.74;47.03;98737.52;134054;1299;22464;-72
2024/03/24 15:00:37;;;;;;;;;;;;;;;9.62;47.71;98744.02;134055;1301;23179;-72
2024/03/24 15:03:40;;;;;;;;;;;;;;;9.55;47.73;98740.91;134082;1304;23288;-72
2024/03/24 15:06:44;;;;;;;;;;;;;;;9.47;47.97;98748.44;133927;1298;22540;-71
2024/03/24 15:09:45;;;;;;;;;;;;;;;9.32;48.02;98745.97;134111;1301;22471;-72
2024/03/24 15:12:47;;;;;;;;;;;;;;;9.17;48.19;98747.02;134056;1292;23015;-72
2024/03/24 15:15:48;;;;;;;;;;;;;;;8.97;48.41;98749.49;134083;1301;24938;-72
2024/03/24 15:18:53;;;;;;;;;;;;;;;8.85;48.72;98751.13;134035;1298;22463;-71
2024/03/24 15:21:54;;;;;;;;;;;;;;;8.77;49.18;98749.30;134053;1302;22471;-71
2024/03/24 15:25:05;;;;;;;;;;;;;;;;;;;;;
2024/03/24 15:28:06;;;;;;;;;;;;;;;8.69;49.43;98737.55;134056;1301;23125;-70
2024/03/24 15:31:11;;;;;;;;;;;;;;;8.61;49.70;98734.50;134065;1298;22528;-74
2024/03/24 15:34:14;;;;;;;;;;;;;;;8.55;50.16;98735.65;134095;1298;23261;-75
2024/03/24 15:37:15;;;;;;;;;;;;;;;8.45;50.73;98738.80;134124;1298;22491;-74
2024/03/24 15:40:15;;;;;;;;;;;;;;;8.34;51.13;98736.56;134063;1298;22453;-74
2024/03/24 15:43:21;;;;;;;;;;;;;;;8.28;51.28;98739.23;134043;1291;22623;-73
2024/03/24 15:46:23;;;;;;;;;;;;;;;8.21;51.73;98737.41;134062;1298;23558;-72
2024/03/24 15:49:26;;;;;;;;;;;;;;;8.19;52.13;98735.21;134089;1299;22490;-73
2024/03/24 15:52:28;;;;;;;;;;;;;;;8.23;52.35;98739.75;134068;1301;22483;-73
2024/03/24 15:55:31;;;;;;;;;;;;;;;8.26;52.24;98741.32;134063;1298;22469;-73
2024/03/24 15:58:41;;;;;;;;;;;;;;;8.29;52.55;98744.04;134095;1305;23413;-74
2024/03/24 16:01:41;;;;;;;;;;;;;;;8.33;52.82;98745.71;134063;1301;22581;-72
2024/03/24 16:04:45;;;;;;;;;;;;;;;8.38;52.99;98745.45;134017;1298;22517;-72